sensor_id;sensor_type;location;lat;lon;timestamp;temperature;humidity
26505;DHT22;19493;48.042;7.584;2022-09-29T00:01:50;9.90;99.90
26505;DHT22;19493;48.042;7.584;2022-09-29T00:04:16;9.90;99.90
26505;DHT22;19493;48.042;7.584;2022-09-29T00:06:42;9.80;99.90
26505;DHT22;19493;48.042;7.584;2022-09-29T00:09:08;9.80;99.90
26505;DHT22;19493;48.042;7.584;2022-09-29T00:11:33;9.80;99.90
26505;DHT22;19493;48.042;7.584;2022-09-29T00:13:59;9.80;99.90
26505;DHT22;19493;48.042;7.584;2022-09-29T00:16:24;9.80;99.90
26505;DHT22;19493;48.042;7.584;2022-09-29T00:18:53;9.80;99.90
26505;DHT22;19493;48.042;7.584;2022-09-29T00:21:18;9.80;99.90
26505;DHT22;19493;48.042;7.584;2022-09-29T00:23:44;9.80;99.90
26505;DHT22;19493;48.042;7.584;2022-09-29T00:26:16;9.80;99.90
26505;DHT22;19493;48.042;7.584;2022-09-29T00:28:47;9.80;99.90
26505;DHT22;19493;48.042;7.584;2022-09-29T00:31:14;9.80;99.90
26505;DHT22;19493;48.042;7.584;2022-09-29T00:33:39;9.80;99.90
26505;DHT22;19493;48.042;7.584;2022-09-29T00:36:08;9.80;99.90
26505;DHT22;19493;48.042;7.584;2022-09-29T00:38:35;9.70;99.90
26505;DHT22;19493;48.042;7.584;2022-09-29T00:41:01;9.70;99.90
26505;DHT22;19493;48.042;7.584;2022-09-29T00:46:41;9.70;99.90
26505;DHT22;19493;48.042;7.584;2022-09-29T00:49:44;9.60;99.90
26505;DHT22;19493;48.042;7.584;2022-09-29T00:52:11;9.60;99.90
26505;DHT22;19493;48.042;7.584;2022-09-29T00:54:54;9.60;99.90
26505;DHT22;19493;48.042;7.584;2022-09-29T00:57:26;9.50;99.90
26505;DHT22;19493;48.042;7.584;2022-09-29T01:00:01;9.50;99.90
26505;DHT22;19493;48.042;7.584;2022-09-29T01:02:29;9.50;99.90
26505;DHT22;19493;48.042;7.584;2022-09-29T01:04:55;9.50;99.90
26505;DHT22;19493;48.042;7.584;2022-09-29T01:07:23;9.50;99.90
26505;DHT22;19493;48.042;7.584;2022-09-29T01:09:51;9.50;99.90
26505;DHT22;19493;48.042;7.584;2022-09-29T01:12:18;9.50;99.90
26505;DHT22;19493;48.042;7.584;2022-09-29T01:14:44;9.50;99.90
26505;DHT22;19493;48.042;7.584;2022-09-29T01:17:11;9.50;99.90
26505;DHT22;19493;48.042;7.584;2022-09-29T01:22:49;9.50;99.90
26505;DHT22;19493;48.042;7.584;2022-09-29T01:31:29;9.40;99.90
26505;DHT22;19493;48.042;7.584;2022-09-29T01:36:43;9.40;99.90
26505;DHT22;19493;48.042;7.584;2022-09-29T01:39:40;9.40;99.90
26505;DHT22;19493;48.042;7.584;2022-09-29T01:42:16;9.40;99.90
26505;DHT22;19493;48.042;7.584;2022-09-29T01:44:50;9.30;99.90
26505;DHT22;19493;48.042;7.584;2022-09-29T01:47:39;9.30;99.90
26505;DHT22;19493;48.042;7.584;2022-09-29T01:50:14;9.30;99.90
26505;DHT22;19493;48.042;7.584;2022-09-29T01:52:44;9.30;99.90
26505;DHT22;19493;48.042;7.584;2022-09-29T01:55:15;9.30;99.90
26505;DHT22;19493;48.042;7.584;2022-09-29T02:00:22;9.20;99.90
26505;DHT22;19493;48.042;7.584;2022-09-29T02:02:59;9.20;99.90
26505;DHT22;19493;48.042;7.584;2022-09-29T02:05:37;9.10;99.90
26505;DHT22;19493;48.042;7.584;2022-09-29T02:08:26;9.10;99.90
26505;DHT22;19493;48.042;7.584;2022-09-29T02:11:04;9.10;99.90
26505;DHT22;19493;48.042;7.584;2022-09-29T02:13:34;9.10;99.90
26505;DHT22;19493;48.042;7.584;2022-09-29T02:16:02;9.00;99.90
26505;DHT22;19493;48.042;7.584;2022-09-29T02:18:33;9.00;99.90
26505;DHT22;19493;48.042;7.584;2022-09-29T02:21:00;9.00;99.90
26505;DHT22;19493;48.042;7.584;2022-09-29T02:23:25;8.90;99.90
26505;DHT22;19493;48.042;7.584;2022-09-29T02:25:51;8.90;99.90
26505;DHT22;19493;48.042;7.584;2022-09-29T02:28:18;8.90;99.90
26505;DHT22;19493;48.042;7.584;2022-09-29T02:30:44;8.80;99.90
26505;DHT22;19493;48.042;7.584;2022-09-29T02:33:21;8.80;99.90
26505;DHT22;19493;48.042;7.584;2022-09-29T02:35:59;8.80;99.90
26505;DHT22;19493;48.042;7.584;2022-09-29T02:41:42;8.70;99.90
26505;DHT22;19493;48.042;7.584;2022-09-29T02:58:38;8.50;99.90
26505;DHT22;19493;48.042;7.584;2022-09-29T03:01:07;8.60;99.90
26505;DHT22;19493;48.042;7.584;2022-09-29T03:03:33;8.70;99.90
26505;DHT22;19493;48.042;7.584;2022-09-29T03:05:58;8.70;99.90
26505;DHT22;19493;48.042;7.584;2022-09-29T03:08:24;8.70;99.90
26505;DHT22;19493;48.042;7.584;2022-09-29T03:10:49;8.70;99.90
26505;DHT22;19493;48.042;7.584;2022-09-29T03:13:15;8.70;99.90
26505;DHT22;19493;48.042;7.584;2022-09-29T03:15:41;8.80;99.90
26505;DHT22;19493;48.042;7.584;2022-09-29T03:18:06;8.80;99.90
26505;DHT22;19493;48.042;7.584;2022-09-29T03:20:32;8.70;99.90
26505;DHT22;19493;48.042;7.584;2022-09-29T03:22:58;8.70;99.90
26505;DHT22;19493;48.042;7.584;2022-09-29T03:25:24;8.70;99.90
26505;DHT22;19493;48.042;7.584;2022-09-29T03:27:50;8.70;99.90
26505;DHT22;19493;48.042;7.584;2022-09-29T03:30:17;8.70;99.90
26505;DHT22;19493;48.042;7.584;2022-09-29T03:32:43;8.70;99.90
26505;DHT22;19493;48.042;7.584;2022-09-29T03:35:09;8.80;99.90
26505;DHT22;19493;48.042;7.584;2022-09-29T03:37:35;8.70;99.90
26505;DHT22;19493;48.042;7.584;2022-09-29T03:40:02;8.80;99.90
26505;DHT22;19493;48.042;7.584;2022-09-29T03:42:27;8.70;99.90
26505;DHT22;19493;48.042;7.584;2022-09-29T03:44:54;8.70;99.90
26505;DHT22;19493;48.042;7.584;2022-09-29T03:47:19;8.70;99.90
26505;DHT22;19493;48.042;7.584;2022-09-29T03:49:45;8.70;99.90
26505;DHT22;19493;48.042;7.584;2022-09-29T03:52:11;8.60;99.90
26505;DHT22;19493;48.042;7.584;2022-09-29T03:54:36;8.60;99.90
26505;DHT22;19493;48.042;7.584;2022-09-29T03:57:02;8.60;99.90
26505;DHT22;19493;48.042;7.584;2022-09-29T03:59:28;8.60;99.90
26505;DHT22;19493;48.042;7.584;2022-09-29T04:01:53;8.60;99.90
26505;DHT22;19493;48.042;7.584;2022-09-29T04:04:19;8.60;99.90
26505;DHT22;19493;48.042;7.584;2022-09-29T04:06:44;8.60;99.90
26505;DHT22;19493;48.042;7.584;2022-09-29T04:09:10;8.60;99.90
26505;DHT22;19493;48.042;7.584;2022-09-29T04:11:36;8.60;99.90
26505;DHT22;19493;48.042;7.584;2022-09-29T04:14:02;8.60;99.90
26505;DHT22;19493;48.042;7.584;2022-09-29T04:16:27;8.70;99.90
26505;DHT22;19493;48.042;7.584;2022-09-29T04:18:53;8.70;99.90
26505;DHT22;19493;48.042;7.584;2022-09-29T04:21:19;8.70;99.90
26505;DHT22;19493;48.042;7.584;2022-09-29T04:23:45;8.70;99.90
26505;DHT22;19493;48.042;7.584;2022-09-29T04:26:11;8.70;99.90
26505;DHT22;19493;48.042;7.584;2022-09-29T04:28:37;8.70;99.90
26505;DHT22;19493;48.042;7.584;2022-09-29T04:31:03;8.70;99.90
26505;DHT22;19493;48.042;7.584;2022-09-29T04:33:29;8.70;99.90
26505;DHT22;19493;48.042;7.584;2022-09-29T04:35:56;8.70;99.90
26505;DHT22;19493;48.042;7.584;2022-09-29T04:38:22;8.70;99.90
26505;DHT22;19493;48.042;7.584;2022-09-29T04:40:47;8.70;99.90
26505;DHT22;19493;48.042;7.584;2022-09-29T04:43:14;8.70;99.90
26505;DHT22;19493;48.042;7.584;2022-09-29T04:45:39;8.70;99.90
26505;DHT22;19493;48.042;7.584;2022-09-29T04:48:05;8.70;99.90
26505;DHT22;19493;48.042;7.584;2022-09-29T04:50:32;8.70;99.90
26505;DHT22;19493;48.042;7.584;2022-09-29T04:52:58;8.70;99.90
26505;DHT22;19493;48.042;7.584;2022-09-29T04:55:24;8.70;99.90
26505;DHT22;19493;48.042;7.584;2022-09-29T04:57:49;8.70;99.90
26505;DHT22;19493;48.042;7.584;2022-09-29T05:00:15;8.70;99.90
26505;DHT22;19493;48.042;7.584;2022-09-29T05:02:41;8.70;99.90
26505;DHT22;19493;48.042;7.584;2022-09-29T05:05:08;8.70;99.90
26505;DHT22;19493;48.042;7.584;2022-09-29T05:07:35;8.60;99.90
26505;DHT22;19493;48.042;7.584;2022-09-29T05:10:02;8.60;99.90
26505;DHT22;19493;48.042;7.584;2022-09-29T05:12:27;8.60;99.90
26505;DHT22;19493;48.042;7.584;2022-09-29T05:14:53;8.70;99.90
26505;DHT22;19493;48.042;7.584;2022-09-29T05:17:19;8.70;99.90
26505;DHT22;19493;48.042;7.584;2022-09-29T05:19:44;8.70;99.90
26505;DHT22;19493;48.042;7.584;2022-09-29T05:22:10;8.70;99.90
26505;DHT22;19493;48.042;7.584;2022-09-29T05:24:35;8.80;99.90
26505;DHT22;19493;48.042;7.584;2022-09-29T05:27:01;8.80;99.90
26505;DHT22;19493;48.042;7.584;2022-09-29T05:29:26;8.80;99.90
26505;DHT22;19493;48.042;7.584;2022-09-29T05:31:52;8.80;99.90
26505;DHT22;19493;48.042;7.584;2022-09-29T05:34:17;8.80;99.90
26505;DHT22;19493;48.042;7.584;2022-09-29T05:36:43;8.90;99.90
26505;DHT22;19493;48.042;7.584;2022-09-29T05:39:10;8.90;99.90
26505;DHT22;19493;48.042;7.584;2022-09-29T05:41:35;8.90;99.90
26505;DHT22;19493;48.042;7.584;2022-09-29T05:44:01;8.90;99.90
26505;DHT22;19493;48.042;7.584;2022-09-29T05:46:27;8.90;99.90
26505;DHT22;19493;48.042;7.584;2022-09-29T05:48:53;8.90;99.90
26505;DHT22;19493;48.042;7.584;2022-09-29T05:51:21;8.90;99.90
26505;DHT22;19493;48.042;7.584;2022-09-29T05:53:47;9.00;99.90
26505;DHT22;19493;48.042;7.584;2022-09-29T05:56:16;9.00;99.90
26505;DHT22;19493;48.042;7.584;2022-09-29T05:58:43;9.00;99.90
26505;DHT22;19493;48.042;7.584;2022-09-29T06:01:11;9.00;99.90
26505;DHT22;19493;48.042;7.584;2022-09-29T06:03:37;9.10;99.90
26505;DHT22;19493;48.042;7.584;2022-09-29T06:06:11;9.10;99.90
26505;DHT22;19493;48.042;7.584;2022-09-29T06:08:38;9.10;99.90
26505;DHT22;19493;48.042;7.584;2022-09-29T06:11:06;9.10;99.90
26505;DHT22;19493;48.042;7.584;2022-09-29T06:13:32;9.10;99.90
26505;DHT22;19493;48.042;7.584;2022-09-29T06:15:59;9.10;99.90
26505;DHT22;19493;48.042;7.584;2022-09-29T06:18:24;9.20;99.90
26505;DHT22;19493;48.042;7.584;2022-09-29T06:20:50;9.30;99.90
26505;DHT22;19493;48.042;7.584;2022-09-29T06:23:16;9.30;99.90
26505;DHT22;19493;48.042;7.584;2022-09-29T06:25:41;9.30;99.90
26505;DHT22;19493;48.042;7.584;2022-09-29T06:28:07;9.40;99.90
26505;DHT22;19493;48.042;7.584;2022-09-29T06:30:32;9.40;99.90
26505;DHT22;19493;48.042;7.584;2022-09-29T06:32:58;9.40;99.90
26505;DHT22;19493;48.042;7.584;2022-09-29T06:35:23;9.50;99.90
26505;DHT22;19493;48.042;7.584;2022-09-29T06:38:07;9.60;99.90
26505;DHT22;19493;48.042;7.584;2022-09-29T06:40:33;9.70;99.90
26505;DHT22;19493;48.042;7.584;2022-09-29T06:42:58;9.80;99.90
26505;DHT22;19493;48.042;7.584;2022-09-29T06:45:24;9.80;99.90
26505;DHT22;19493;48.042;7.584;2022-09-29T06:47:49;9.80;99.90
26505;DHT22;19493;48.042;7.584;2022-09-29T06:50:15;9.80;99.90
26505;DHT22;19493;48.042;7.584;2022-09-29T06:52:41;9.80;99.90
26505;DHT22;19493;48.042;7.584;2022-09-29T06:55:06;9.80;99.90
26505;DHT22;19493;48.042;7.584;2022-09-29T06:57:32;9.80;99.90
26505;DHT22;19493;48.042;7.584;2022-09-29T06:59:57;9.90;99.90
26505;DHT22;19493;48.042;7.584;2022-09-29T07:02:23;10.00;99.90
26505;DHT22;19493;48.042;7.584;2022-09-29T07:04:49;10.00;99.90
26505;DHT22;19493;48.042;7.584;2022-09-29T07:07:15;10.10;99.90
26505;DHT22;19493;48.042;7.584;2022-09-29T07:09:40;10.00;99.90
26505;DHT22;19493;48.042;7.584;2022-09-29T07:12:07;10.10;99.90
26505;DHT22;19493;48.042;7.584;2022-09-29T07:14:33;10.20;99.90
26505;DHT22;19493;48.042;7.584;2022-09-29T07:16:58;10.30;99.90
26505;DHT22;19493;48.042;7.584;2022-09-29T07:19:24;10.30;99.90
26505;DHT22;19493;48.042;7.584;2022-09-29T07:21:50;10.40;99.90
26505;DHT22;19493;48.042;7.584;2022-09-29T07:24:16;10.40;99.90
26505;DHT22;19493;48.042;7.584;2022-09-29T07:26:42;10.50;99.90
26505;DHT22;19493;48.042;7.584;2022-09-29T07:29:08;10.60;99.90
26505;DHT22;19493;48.042;7.584;2022-09-29T07:31:34;10.80;99.90
26505;DHT22;19493;48.042;7.584;2022-09-29T07:34:00;10.90;99.90
26505;DHT22;19493;48.042;7.584;2022-09-29T07:36:25;11.10;99.90
26505;DHT22;19493;48.042;7.584;2022-09-29T07:38:51;11.30;99.90
26505;DHT22;19493;48.042;7.584;2022-09-29T07:41:19;11.50;99.90
26505;DHT22;19493;48.042;7.584;2022-09-29T07:43:45;11.70;99.90
26505;DHT22;19493;48.042;7.584;2022-09-29T07:46:11;11.60;99.90
26505;DHT22;19493;48.042;7.584;2022-09-29T07:48:37;11.60;99.90
26505;DHT22;19493;48.042;7.584;2022-09-29T07:51:12;11.60;99.90
26505;DHT22;19493;48.042;7.584;2022-09-29T07:53:38;11.70;99.90
26505;DHT22;19493;48.042;7.584;2022-09-29T07:56:11;11.70;99.90
26505;DHT22;19493;48.042;7.584;2022-09-29T07:58:38;11.70;99.90
26505;DHT22;19493;48.042;7.584;2022-09-29T08:01:05;11.70;99.90
26505;DHT22;19493;48.042;7.584;2022-09-29T08:03:42;11.80;99.90
26505;DHT22;19493;48.042;7.584;2022-09-29T08:06:09;11.90;99.90
26505;DHT22;19493;48.042;7.584;2022-09-29T08:08:36;12.10;99.90
26505;DHT22;19493;48.042;7.584;2022-09-29T08:11:06;12.20;99.90
26505;DHT22;19493;48.042;7.584;2022-09-29T08:13:32;12.30;99.90
26505;DHT22;19493;48.042;7.584;2022-09-29T08:15:59;12.40;99.90
26505;DHT22;19493;48.042;7.584;2022-09-29T08:18:26;12.50;99.90
26505;DHT22;19493;48.042;7.584;2022-09-29T08:20:52;12.50;99.90
26505;DHT22;19493;48.042;7.584;2022-09-29T08:23:19;12.70;99.90
26505;DHT22;19493;48.042;7.584;2022-09-29T08:25:44;12.90;99.90
26505;DHT22;19493;48.042;7.584;2022-09-29T08:28:10;13.00;99.90
26505;DHT22;19493;48.042;7.584;2022-09-29T08:30:36;13.10;99.90
26505;DHT22;19493;48.042;7.584;2022-09-29T08:33:03;13.10;99.90
26505;DHT22;19493;48.042;7.584;2022-09-29T08:35:29;13.10;99.90
26505;DHT22;19493;48.042;7.584;2022-09-29T08:37:54;13.30;99.90
26505;DHT22;19493;48.042;7.584;2022-09-29T08:40:21;13.50;99.90
26505;DHT22;19493;48.042;7.584;2022-09-29T08:42:56;13.80;99.90
26505;DHT22;19493;48.042;7.584;2022-09-29T08:45:45;13.90;99.90
26505;DHT22;19493;48.042;7.584;2022-09-29T08:48:20;14.00;99.90
26505;DHT22;19493;48.042;7.584;2022-09-29T08:50:59;14.00;99.90
26505;DHT22;19493;48.042;7.584;2022-09-29T08:53:27;14.20;99.90
26505;DHT22;19493;48.042;7.584;2022-09-29T08:55:59;14.30;99.90
26505;DHT22;19493;48.042;7.584;2022-09-29T08:58:25;14.40;99.90
26505;DHT22;19493;48.042;7.584;2022-09-29T09:06:23;13.90;99.90
26505;DHT22;19493;48.042;7.584;2022-09-29T09:09:12;13.60;99.90
26505;DHT22;19493;48.042;7.584;2022-09-29T09:14:59;13.30;99.90
26505;DHT22;19493;48.042;7.584;2022-09-29T09:20:33;13.40;99.90
26505;DHT22;19493;48.042;7.584;2022-09-29T09:23:35;13.60;99.90
26505;DHT22;19493;48.042;7.584;2022-09-29T09:26:03;13.90;99.90
26505;DHT22;19493;48.042;7.584;2022-09-29T09:28:32;14.10;99.90
26505;DHT22;19493;48.042;7.584;2022-09-29T09:31:12;14.30;99.90
26505;DHT22;19493;48.042;7.584;2022-09-29T09:36:44;15.00;99.90
26505;DHT22;19493;48.042;7.584;2022-09-29T09:39:36;15.10;99.90
26505;DHT22;19493;48.042;7.584;2022-09-29T09:42:17;15.40;99.90
26505;DHT22;19493;48.042;7.584;2022-09-29T09:47:37;16.20;99.90
26505;DHT22;19493;48.042;7.584;2022-09-29T09:50:13;16.90;99.90
26505;DHT22;19493;48.042;7.584;2022-09-29T09:55:21;17.10;99.90
26505;DHT22;19493;48.042;7.584;2022-09-29T10:00:45;16.20;99.90
26505;DHT22;19493;48.042;7.584;2022-09-29T10:03:12;15.90;99.90
26505;DHT22;19493;48.042;7.584;2022-09-29T10:05:41;15.80;99.90
26505;DHT22;19493;48.042;7.584;2022-09-29T10:08:27;15.70;99.90
26505;DHT22;19493;48.042;7.584;2022-09-29T10:10:55;15.60;99.90
26505;DHT22;19493;48.042;7.584;2022-09-29T10:13:24;15.90;99.90
26505;DHT22;19493;48.042;7.584;2022-09-29T10:15:55;16.30;99.90
26505;DHT22;19493;48.042;7.584;2022-09-29T10:18:31;16.50;99.90
26505;DHT22;19493;48.042;7.584;2022-09-29T10:21:00;16.90;99.90
26505;DHT22;19493;48.042;7.584;2022-09-29T10:23:31;17.10;99.90
26505;DHT22;19493;48.042;7.584;2022-09-29T10:26:16;17.20;99.90
26505;DHT22;19493;48.042;7.584;2022-09-29T10:28:56;17.30;99.90
26505;DHT22;19493;48.042;7.584;2022-09-29T10:31:30;17.00;99.90
26505;DHT22;19493;48.042;7.584;2022-09-29T10:34:02;16.80;99.90
26505;DHT22;19493;48.042;7.584;2022-09-29T10:36:31;16.60;99.90
26505;DHT22;19493;48.042;7.584;2022-09-29T10:38:58;16.40;99.90
26505;DHT22;19493;48.042;7.584;2022-09-29T10:41:24;16.20;99.90
26505;DHT22;19493;48.042;7.584;2022-09-29T10:43:50;16.00;99.90
26505;DHT22;19493;48.042;7.584;2022-09-29T10:49:25;15.90;99.90
26505;DHT22;19493;48.042;7.584;2022-09-29T10:52:02;15.80;99.90
26505;DHT22;19493;48.042;7.584;2022-09-29T10:54:31;16.20;99.90
26505;DHT22;19493;48.042;7.584;2022-09-29T10:56:58;16.60;99.90
26505;DHT22;19493;48.042;7.584;2022-09-29T10:59:25;17.10;99.90
26505;DHT22;19493;48.042;7.584;2022-09-29T11:01:56;17.60;99.90
26505;DHT22;19493;48.042;7.584;2022-09-29T11:04:30;18.30;99.90
26505;DHT22;19493;48.042;7.584;2022-09-29T11:06:56;19.10;99.90
26505;DHT22;19493;48.042;7.584;2022-09-29T11:09:39;19.80;99.90
26505;DHT22;19493;48.042;7.584;2022-09-29T11:12:11;19.50;99.90
26505;DHT22;19493;48.042;7.584;2022-09-29T11:14:48;18.90;99.90
26505;DHT22;19493;48.042;7.584;2022-09-29T11:17:27;18.40;99.90
26505;DHT22;19493;48.042;7.584;2022-09-29T11:19:56;18.60;99.90
26505;DHT22;19493;48.042;7.584;2022-09-29T11:25:29;19.80;99.90
26505;DHT22;19493;48.042;7.584;2022-09-29T11:28:12;20.10;99.90
26505;DHT22;19493;48.042;7.584;2022-09-29T11:30:59;19.70;99.90
26505;DHT22;19493;48.042;7.584;2022-09-29T11:55:41;20.90;94.90
26505;DHT22;19493;48.042;7.584;2022-09-29T11:58:21;21.10;93.20
26505;DHT22;19493;48.042;7.584;2022-09-29T12:06:46;19.50;95.00
26505;DHT22;19493;48.042;7.584;2022-09-29T12:12:30;18.70;98.70
26505;DHT22;19493;48.042;7.584;2022-09-29T12:17:53;18.30;99.90
26505;DHT22;19493;48.042;7.584;2022-09-29T12:20:27;18.10;99.90
26505;DHT22;19493;48.042;7.584;2022-09-29T12:22:57;17.90;99.90
26505;DHT22;19493;48.042;7.584;2022-09-29T12:25:28;17.60;99.90
26505;DHT22;19493;48.042;7.584;2022-09-29T12:28:01;17.50;99.90
26505;DHT22;19493;48.042;7.584;2022-09-29T12:30:36;17.40;99.90
26505;DHT22;19493;48.042;7.584;2022-09-29T12:33:37;17.50;99.90
26505;DHT22;19493;48.042;7.584;2022-09-29T12:39:34;17.90;99.90
26505;DHT22;19493;48.042;7.584;2022-09-29T12:45:05;17.10;99.90
26505;DHT22;19493;48.042;7.584;2022-09-29T12:47:53;16.70;99.90
26505;DHT22;19493;48.042;7.584;2022-09-29T12:50:24;16.40;99.90
26505;DHT22;19493;48.042;7.584;2022-09-29T12:53:02;16.30;99.90
26505;DHT22;19493;48.042;7.584;2022-09-29T12:55:53;16.40;99.90
26505;DHT22;19493;48.042;7.584;2022-09-29T12:58:23;16.20;99.90
26505;DHT22;19493;48.042;7.584;2022-09-29T13:00:57;16.10;99.90
26505;DHT22;19493;48.042;7.584;2022-09-29T13:03:36;16.00;99.90
26505;DHT22;19493;48.042;7.584;2022-09-29T13:06:33;15.90;99.90
26505;DHT22;19493;48.042;7.584;2022-09-29T13:09:35;15.80;99.90
26505;DHT22;19493;48.042;7.584;2022-09-29T13:15:33;15.50;99.90
26505;DHT22;19493;48.042;7.584;2022-09-29T13:23:51;15.30;99.90
26505;DHT22;19493;48.042;7.584;2022-09-29T13:29:20;15.40;99.90
26505;DHT22;19493;48.042;7.584;2022-09-29T13:31:49;15.40;99.90
26505;DHT22;19493;48.042;7.584;2022-09-29T13:34:27;15.40;99.90
26505;DHT22;19493;48.042;7.584;2022-09-29T13:36:53;15.40;99.90
26505;DHT22;19493;48.042;7.584;2022-09-29T13:39:29;15.50;99.90
26505;DHT22;19493;48.042;7.584;2022-09-29T13:41:55;15.60;99.90
26505;DHT22;19493;48.042;7.584;2022-09-29T13:44:27;15.70;99.90
26505;DHT22;19493;48.042;7.584;2022-09-29T13:46:54;15.80;99.90
26505;DHT22;19493;48.042;7.584;2022-09-29T13:56:58;16.60;99.90
26505;DHT22;19493;48.042;7.584;2022-09-29T13:59:24;16.80;99.90
26505;DHT22;19493;48.042;7.584;2022-09-29T14:01:51;16.70;99.90
26505;DHT22;19493;48.042;7.584;2022-09-29T14:04:43;16.50;99.90
26505;DHT22;19493;48.042;7.584;2022-09-29T14:07:12;16.40;99.90
26505;DHT22;19493;48.042;7.584;2022-09-29T14:09:42;16.50;99.90
26505;DHT22;19493;48.042;7.584;2022-09-29T14:12:18;16.60;99.90
26505;DHT22;19493;48.042;7.584;2022-09-29T14:14:54;16.70;99.90
26505;DHT22;19493;48.042;7.584;2022-09-29T14:17:36;16.60;99.90
26505;DHT22;19493;48.042;7.584;2022-09-29T14:27:46;16.30;99.90
26505;DHT22;19493;48.042;7.584;2022-09-29T14:41:23;19.70;99.90
26505;DHT22;19493;48.042;7.584;2022-09-29T14:44:05;21.60;94.80
26505;DHT22;19493;48.042;7.584;2022-09-29T14:49:56;24.20;70.10
26505;DHT22;19493;48.042;7.584;2022-09-29T14:59:04;21.20;71.00
26505;DHT22;19493;48.042;7.584;2022-09-29T15:01:37;20.00;77.10
26505;DHT22;19493;48.042;7.584;2022-09-29T15:04:14;19.00;81.60
26505;DHT22;19493;48.042;7.584;2022-09-29T15:06:48;18.40;89.70
26505;DHT22;19493;48.042;7.584;2022-09-29T15:09:22;17.70;92.00
26505;DHT22;19493;48.042;7.584;2022-09-29T15:11:50;17.10;95.50
26505;DHT22;19493;48.042;7.584;2022-09-29T15:25:17;15.80;99.90
26505;DHT22;19493;48.042;7.584;2022-09-29T15:27:49;15.60;99.90
26505;DHT22;19493;48.042;7.584;2022-09-29T15:30:17;15.60;99.90
26505;DHT22;19493;48.042;7.584;2022-09-29T15:32:45;15.50;99.90
26505;DHT22;19493;48.042;7.584;2022-09-29T15:35:23;15.60;99.90
26505;DHT22;19493;48.042;7.584;2022-09-29T15:40:21;15.40;99.90
26505;DHT22;19493;48.042;7.584;2022-09-29T15:42:47;15.30;99.90
26505;DHT22;19493;48.042;7.584;2022-09-29T15:45:21;15.20;99.90
26505;DHT22;19493;48.042;7.584;2022-09-29T15:47:47;15.20;99.90
26505;DHT22;19493;48.042;7.584;2022-09-29T15:50:21;15.20;99.90
26505;DHT22;19493;48.042;7.584;2022-09-29T15:52:48;15.00;99.90
26505;DHT22;19493;48.042;7.584;2022-09-29T15:55:20;15.00;99.90
26505;DHT22;19493;48.042;7.584;2022-09-29T15:57:48;14.90;99.90
26505;DHT22;19493;48.042;7.584;2022-09-29T16:02:58;14.90;99.90
26505;DHT22;19493;48.042;7.584;2022-09-29T16:05:27;14.90;99.90
26505;DHT22;19493;48.042;7.584;2022-09-29T16:08:05;14.80;99.90
26505;DHT22;19493;48.042;7.584;2022-09-29T16:10:54;14.70;99.90
26505;DHT22;19493;48.042;7.584;2022-09-29T16:13:27;14.70;99.90
26505;DHT22;19493;48.042;7.584;2022-09-29T16:16:02;14.70;99.90
26505;DHT22;19493;48.042;7.584;2022-09-29T16:18:43;14.60;99.90
26505;DHT22;19493;48.042;7.584;2022-09-29T16:21:19;14.50;99.90
26505;DHT22;19493;48.042;7.584;2022-09-29T16:23:50;14.40;99.90
26505;DHT22;19493;48.042;7.584;2022-09-29T16:26:36;14.30;99.90
26505;DHT22;19493;48.042;7.584;2022-09-29T16:31:36;14.10;99.90
26505;DHT22;19493;48.042;7.584;2022-09-29T16:34:20;14.00;99.90
26505;DHT22;19493;48.042;7.584;2022-09-29T16:36:57;13.90;99.90
26505;DHT22;19493;48.042;7.584;2022-09-29T16:39:47;13.90;99.90
26505;DHT22;19493;48.042;7.584;2022-09-29T16:42:19;13.80;99.90
26505;DHT22;19493;48.042;7.584;2022-09-29T16:44:45;13.80;99.90
26505;DHT22;19493;48.042;7.584;2022-09-29T16:47:16;13.70;99.90
26505;DHT22;19493;48.042;7.584;2022-09-29T16:49:55;13.70;99.90
26505;DHT22;19493;48.042;7.584;2022-09-29T16:52:48;13.60;99.90
26505;DHT22;19493;48.042;7.584;2022-09-29T16:58:02;13.50;99.90
26505;DHT22;19493;48.042;7.584;2022-09-29T17:00:29;13.50;99.90
26505;DHT22;19493;48.042;7.584;2022-09-29T17:02:55;13.40;99.90
26505;DHT22;19493;48.042;7.584;2022-09-29T17:05:23;13.40;99.90
26505;DHT22;19493;48.042;7.584;2022-09-29T17:07:49;13.30;99.90
26505;DHT22;19493;48.042;7.584;2022-09-29T17:10:18;13.30;99.90
26505;DHT22;19493;48.042;7.584;2022-09-29T17:12:44;13.30;99.90
26505;DHT22;19493;48.042;7.584;2022-09-29T17:15:14;13.30;99.90
26505;DHT22;19493;48.042;7.584;2022-09-29T17:17:41;13.20;99.90
26505;DHT22;19493;48.042;7.584;2022-09-29T17:20:12;13.20;99.90
26505;DHT22;19493;48.042;7.584;2022-09-29T17:22:39;13.20;99.90
26505;DHT22;19493;48.042;7.584;2022-09-29T17:25:05;13.20;99.90
26505;DHT22;19493;48.042;7.584;2022-09-29T17:27:31;13.10;99.90
26505;DHT22;19493;48.042;7.584;2022-09-29T17:30:20;13.10;99.90
26505;DHT22;19493;48.042;7.584;2022-09-29T17:32:48;13.00;99.90
26505;DHT22;19493;48.042;7.584;2022-09-29T17:35:16;12.90;99.90
26505;DHT22;19493;48.042;7.584;2022-09-29T17:37:43;12.80;99.90
26505;DHT22;19493;48.042;7.584;2022-09-29T17:40:28;12.70;99.90
26505;DHT22;19493;48.042;7.584;2022-09-29T17:42:55;12.60;99.90
26505;DHT22;19493;48.042;7.584;2022-09-29T17:45:23;12.50;99.90
26505;DHT22;19493;48.042;7.584;2022-09-29T17:47:50;12.40;99.90
26505;DHT22;19493;48.042;7.584;2022-09-29T17:50:26;12.20;99.90
26505;DHT22;19493;48.042;7.584;2022-09-29T17:52:52;12.10;99.90
26505;DHT22;19493;48.042;7.584;2022-09-29T17:55:18;12.00;99.90
26505;DHT22;19493;48.042;7.584;2022-09-29T17:57:47;11.90;99.90
26505;DHT22;19493;48.042;7.584;2022-09-29T18:00:23;11.80;99.90
26505;DHT22;19493;48.042;7.584;2022-09-29T18:02:50;11.80;99.90
26505;DHT22;19493;48.042;7.584;2022-09-29T18:05:17;11.70;99.90
26505;DHT22;19493;48.042;7.584;2022-09-29T18:07:52;11.60;99.90
26505;DHT22;19493;48.042;7.584;2022-09-29T18:10:29;11.60;99.90
26505;DHT22;19493;48.042;7.584;2022-09-29T18:12:57;11.50;99.90
26505;DHT22;19493;48.042;7.584;2022-09-29T18:15:23;11.50;99.90
26505;DHT22;19493;48.042;7.584;2022-09-29T18:17:54;11.40;99.90
26505;DHT22;19493;48.042;7.584;2022-09-29T18:20:21;11.40;99.90
26505;DHT22;19493;48.042;7.584;2022-09-29T18:22:47;11.40;99.90
26505;DHT22;19493;48.042;7.584;2022-09-29T18:25:14;11.40;99.90
26505;DHT22;19493;48.042;7.584;2022-09-29T18:27:42;11.40;99.90
26505;DHT22;19493;48.042;7.584;2022-09-29T18:32:47;11.30;99.90
26505;DHT22;19493;48.042;7.584;2022-09-29T18:35:16;11.30;99.90
26505;DHT22;19493;48.042;7.584;2022-09-29T18:37:42;11.20;99.90
26505;DHT22;19493;48.042;7.584;2022-09-29T18:40:08;11.20;99.90
26505;DHT22;19493;48.042;7.584;2022-09-29T18:42:39;11.10;99.90
26505;DHT22;19493;48.042;7.584;2022-09-29T18:45:08;11.00;99.90
26505;DHT22;19493;48.042;7.584;2022-09-29T18:47:33;11.00;99.90
26505;DHT22;19493;48.042;7.584;2022-09-29T18:50:00;11.00;99.90
26505;DHT22;19493;48.042;7.584;2022-09-29T18:52:25;11.00;99.90
26505;DHT22;19493;48.042;7.584;2022-09-29T18:54:52;11.00;99.90